Time;durP1;ratioP1;P1;durP2;ratioP2;P2;SDS_P1;SDS_P2;PMS_P1;PMS_P2;Temp;Humidity;BMP_temperature;BMP_pressure;BME280_temperature;BME280_humidity;BME280_pressure;Samples;Min_cycle;Max_cycle;Signal;HPM_P1;HPM_P2
2022/01/01 00:00:09;;;;;;;14.40;9.35;;;14.70;87.50;;;;;;5047131;28;20033;-72
2022/01/01 00:02:38;;;;;;;12.35;9.05;;;14.60;87.30;;;;;;5066004;28;20466;-72
2022/01/01 00:05:06;;;;;;;11.93;9.07;;;14.60;87.30;;;;;;5065874;28;20024;-73
2022/01/01 00:07:33;;;;;;;11.70;8.98;;;14.60;87.40;;;;;;5066090;28;20025;-73
2022/01/01 00:09:59;;;;;;;13.63;9.38;;;14.60;87.40;;;;;;5066071;28;20097;-73
2022/01/01 00:12:24;;;;;;;13.82;9.48;;;14.70;87.60;;;;;;5065684;28;20032;-73
2022/01/01 00:14:50;;;;;;;16.00;11.00;;;14.60;87.40;;;;;;5065760;28;20036;-72
2022/01/01 00:17:17;;;;;;;16.40;9.40;;;14.60;87.50;;;;;;5056546;28;20028;-72
2022/01/01 00:19:43;;;;;;;13.63;8.93;;;14.60;87.40;;;;;;5065171;28;20031;-72
2022/01/01 00:22:08;;;;;;;12.07;8.60;;;14.60;87.50;;;;;;5066254;28;20035;-72
2022/01/01 00:24:35;;;;;;;13.85;10.30;;;14.70;87.60;;;;;;5055621;28;20067;-73
2022/01/01 00:27:01;;;;;;;14.77;9.85;;;14.70;87.60;;;;;;5028191;28;20551;-73
2022/01/01 00:29:28;;;;;;;12.98;9.30;;;14.60;87.40;;;;;;5044782;28;20503;-73
2022/01/01 00:31:54;;;;;;;15.48;9.93;;;14.60;87.40;;;;;;5028285;28;20100;-73
2022/01/01 00:34:20;;;;;;;14.50;9.15;;;14.70;87.50;;;;;;5047285;28;20515;-72
2022/01/01 00:36:46;;;;;;;17.48;9.75;;;14.60;87.40;;;;;;5050057;28;20376;-72
2022/01/01 00:39:12;;;;;;;13.70;8.98;;;14.70;87.50;;;;;;5039319;28;20025;-72
2022/01/01 00:41:38;;;;;;;12.98;10.07;;;14.60;87.40;;;;;;5049931;28;20481;-72
2022/01/01 00:44:04;;;;;;;14.90;9.38;;;14.60;87.40;;;;;;5049850;28;20041;-72
2022/01/01 00:46:30;;;;;;;13.70;9.68;;;14.60;87.30;;;;;;5049227;28;20143;-72
2022/01/01 00:48:56;;;;;;;16.85;9.50;;;14.60;87.30;;;;;;5039709;28;20504;-72
2022/01/01 00:51:22;;;;;;;14.70;9.35;;;14.70;87.50;;;;;;5049868;28;20028;-73
2022/01/01 00:53:50;;;;;;;16.05;9.15;;;14.60;87.30;;;;;;5049545;28;20052;-72
2022/01/01 00:56:17;;;;;;;14.75;9.02;;;14.60;87.40;;;;;;5049883;28;20041;-72
2022/01/01 00:58:43;;;;;;;11.00;8.52;;;14.60;87.40;;;;;;5031619;28;20040;-73
2022/01/01 01:01:09;;;;;;;14.00;9.77;;;14.60;87.40;;;;;;5048671;28;20298;-72
2022/01/01 01:03:35;;;;;;;13.90;10.18;;;14.60;87.40;;;;;;5049310;28;20539;-72
2022/01/01 01:06:01;;;;;;;12.75;8.43;;;14.60;87.40;;;;;;5031625;28;20029;-72
2022/01/01 01:08:28;;;;;;;14.45;9.05;;;14.60;87.40;;;;;;5037837;28;20033;-72
2022/01/01 01:10:57;;;;;;;14.40;8.68;;;14.60;87.50;;;;;;5069659;28;20359;-72
2022/01/01 01:13:24;;;;;;;14.52;10.98;;;14.60;87.50;;;;;;5068749;28;20058;-73
2022/01/01 01:15:51;;;;;;;12.98;9.43;;;14.60;87.40;;;;;;5031180;28;20079;-72
2022/01/01 01:18:17;;;;;;;16.17;9.80;;;14.60;87.50;;;;;;5049389;28;20391;-73
2022/01/01 01:20:43;;;;;;;13.70;9.15;;;14.60;87.50;;;;;;5021846;28;20025;-73
2022/01/01 01:23:09;;;;;;;18.27;10.52;;;14.60;87.50;;;;;;5049267;28;20047;-72
2022/01/01 01:25:40;;;;;;;11.13;9.98;;;14.60;87.40;;;;;;5048526;28;20072;-72
2022/01/01 01:28:08;;;;;;;12.45;9.95;;;14.60;87.40;;;;;;5049001;28;20120;-72
2022/01/01 01:30:36;;;;;;;14.25;8.82;;;14.60;87.50;;;;;;5047663;28;20065;-73
2022/01/01 01:33:03;;;;;;;13.13;8.63;;;14.60;87.40;;;;;;5049313;28;20037;-72
2022/01/01 01:35:29;;;;;;;15.05;9.60;;;14.60;87.40;;;;;;5048773;28;20033;-72
2022/01/01 01:37:55;;;;;;;16.15;9.88;;;14.60;87.40;;;;;;5030645;28;20036;-73
2022/01/01 01:40:21;;;;;;;16.63;9.32;;;14.50;87.30;;;;;;5048591;28;20032;-72
2022/01/01 01:42:47;;;;;;;13.30;9.85;;;14.60;87.40;;;;;;5048596;28;20365;-72
2022/01/01 01:45:18;;;;;;;14.70;9.30;;;14.60;87.50;;;;;;5048888;28;20033;-72
2022/01/01 01:47:45;;;;;;;14.85;9.25;;;14.50;87.20;;;;;;5048328;28;20616;-72
2022/01/01 01:50:13;;;;;;;15.00;10.30;;;14.50;87.20;;;;;;5038832;28;20295;-73
2022/01/01 01:52:43;;;;;;;15.48;9.70;;;14.50;87.30;;;;;;5047388;28;20040;-73
2022/01/01 01:55:11;;;;;;;15.82;9.13;;;14.50;87.30;;;;;;5041613;28;20032;-72
2022/01/01 01:57:39;;;;;;;13.20;8.60;;;14.50;87.30;;;;;;5030532;28;20025;-73
2022/01/01 02:02:57;;;;;;;13.60;8.75;;;14.50;87.30;;;;;;5047507;28;20086;-72
2022/01/01 02:05:23;;;;;;;11.75;8.63;;;14.40;87.10;;;;;;5047969;28;20052;-73
2022/01/01 02:07:51;;;;;;;12.93;9.63;;;14.40;87.20;;;;;;5048110;28;20357;-72
2022/01/01 02:10:17;;;;;;;14.73;9.38;;;14.40;87.70;;;;;;5048466;28;20032;-72
2022/01/01 02:12:49;;;;;;;14.35;10.02;;;14.40;87.20;;;;;;5048315;28;20534;-72
2022/01/01 02:18:08;;;;;;;13.45;10.13;;;14.40;87.30;;;;;;5030181;28;20128;-72
2022/01/01 02:20:34;;;;;;;14.32;9.30;;;14.40;87.30;;;;;;5038791;28;20103;-72
2022/01/01 02:23:01;;;;;;;14.27;9.60;;;14.40;87.30;;;;;;5048182;28;20039;-72
2022/01/01 02:25:28;;;;;;;13.95;8.70;;;14.40;87.30;;;;;;5047453;28;20120;-72
2022/01/01 02:27:55;;;;;;;16.65;9.57;;;14.40;87.30;;;;;;5047820;28;20035;-72
2022/01/01 02:30:22;;;;;;;14.85;8.95;;;14.40;87.30;;;;;;5048781;28;20120;-72
2022/01/01 02:32:48;;;;;;;14.32;10.45;;;14.40;87.30;;;;;;5071465;28;20097;-72
2022/01/01 02:35:17;;;;;;;13.93;9.10;;;14.30;87.20;;;;;;5087014;28;20031;-72
2022/01/01 02:37:43;;;;;;;19.38;10.07;;;14.40;87.30;;;;;;5071569;28;20085;-72
2022/01/01 02:40:11;;;;;;;16.00;9.23;;;14.40;87.30;;;;;;5059868;28;20031;-72
2022/01/01 02:42:42;;;;;;;12.90;9.10;;;14.40;87.30;;;;;;5068508;28;20089;-71
2022/01/01 02:45:11;;;;;;;15.73;9.63;;;14.30;87.20;;;;;;5068598;28;20032;-72
2022/01/01 02:47:37;;;;;;;11.18;8.98;;;14.30;87.20;;;;;;5051667;28;20052;-71
2022/01/01 02:50:04;;;;;;;14.07;9.30;;;14.30;87.20;;;;;;5052081;28;20638;-71
2022/01/01 02:52:30;;;;;;;12.88;9.35;;;14.30;87.20;;;;;;5025253;28;20029;-72
2022/01/01 02:54:56;;;;;;;16.55;9.73;;;14.30;87.20;;;;;;5052308;28;20180;-72
2022/01/01 02:57:23;;;;;;;9.98;8.00;;;14.30;87.20;;;;;;5050146;28;20510;-72
2022/01/01 02:59:49;;;;;;;14.73;9.13;;;14.30;87.20;;;;;;5051794;28;20475;-73
2022/01/01 03:02:15;;;;;;;14.48;9.10;;;14.20;87.10;;;;;;5051161;28;20021;-71
2022/01/01 03:04:41;;;;;;;13.75;9.48;;;14.20;87.10;;;;;;5056062;28;20036;-72
2022/01/01 03:07:07;;;;;;;15.10;9.18;;;14.20;87.10;;;;;;5071881;28;20027;-72
2022/01/01 03:09:36;;;;;;;13.55;8.27;;;14.20;87.10;;;;;;5071897;28;20426;-72
2022/01/01 03:12:07;;;;;;;12.73;9.13;;;14.20;87.10;;;;;;5072059;28;20043;-72
2022/01/01 03:14:34;;;;;;;16.23;8.95;;;14.20;87.10;;;;;;5071622;28;20033;-73
2022/01/01 03:17:01;;;;;;;14.90;8.75;;;14.20;87.20;;;;;;5071545;28;20032;-72
2022/01/01 03:19:27;;;;;;;13.88;9.00;;;14.20;87.20;;;;;;5071720;28;20056;-71
2022/01/01 03:21:53;;;;;;;12.10;8.93;;;14.20;87.20;;;;;;5071273;28;20048;-71
2022/01/01 03:24:19;;;;;;;12.50;8.18;;;14.20;87.20;;;;;;5063703;28;20119;-71
2022/01/01 03:26:45;;;;;;;13.82;8.70;;;14.20;87.20;;;;;;5053435;28;20111;-71
2022/01/01 03:29:13;;;;;;;15.10;8.45;;;14.30;87.30;;;;;;5071041;28;20093;-71
2022/01/01 03:31:39;;;;;;;12.95;9.25;;;14.30;87.30;;;;;;5071175;28;20120;-71
2022/01/01 03:34:05;;;;;;;12.90;9.02;;;14.30;87.30;;;;;;5071150;28;20454;-71
2022/01/01 03:36:31;;;;;;;13.05;7.82;;;14.30;87.30;;;;;;5070772;28;20031;-71
2022/01/01 03:38:59;;;;;;;12.98;8.73;;;14.30;87.20;;;;;;5071244;28;20036;-71
2022/01/01 03:41:26;;;;;;;13.10;7.78;;;14.30;87.20;;;;;;5070925;28;20024;-72
2022/01/01 03:43:52;;;;;;;12.50;7.85;;;14.30;87.20;;;;;;5069490;28;20123;-71
2022/01/01 03:46:18;;;;;;;12.20;8.35;;;14.40;87.30;;;;;;5071136;28;20032;-71
2022/01/01 03:48:44;;;;;;;12.13;8.10;;;14.40;87.30;;;;;;5070767;28;20049;-71
2022/01/01 03:51:10;;;;;;;11.48;7.82;;;14.40;87.20;;;;;;5070812;28;20032;-71
2022/01/01 03:53:36;;;;;;;13.05;7.57;;;14.30;87.10;;;;;;5071099;28;20032;-71
2022/01/01 03:56:02;;;;;;;12.45;8.52;;;14.30;87.00;;;;;;5062265;28;20028;-71
2022/01/01 03:58:28;;;;;;;15.50;8.95;;;14.30;87.00;;;;;;5070683;28;20039;-71
2022/01/01 04:00:55;;;;;;;12.90;8.13;;;14.30;87.00;;;;;;5070461;28;20395;-71
2022/01/01 04:03:21;;;;;;;14.93;8.15;;;14.30;87.00;;;;;;5052975;28;20042;-71
2022/01/01 04:05:47;;;;;;;12.10;7.43;;;14.30;87.00;;;;;;5070314;28;20024;-71
2022/01/01 04:08:14;;;;;;;13.23;8.13;;;14.30;87.00;;;;;;5070280;28;20618;-71
2022/01/01 04:10:41;;;;;;;13.32;8.45;;;14.30;87.00;;;;;;5070985;28;20033;-71
2022/01/01 04:13:09;;;;;;;14.38;9.60;;;14.30;87.00;;;;;;5071013;28;20083;-72
2022/01/01 04:15:36;;;;;;;16.60;8.30;;;14.30;87.50;;;;;;5070683;28;20522;-71
2022/01/01 04:18:09;;;;;;;16.00;9.02;;;14.20;86.80;;;;;;5070853;28;20078;-72
2022/01/01 04:20:35;;;;;;;;;;;14.30;87.00;;;;;;5071416;28;20124;-71
2022/01/01 04:23:01;;;;;;;16.92;8.18;;;14.30;87.00;;;;;;5070226;28;20003;-72
2022/01/01 04:25:28;;;;;;;15.52;7.93;;;14.30;86.90;;;;;;5052699;28;20032;-71
2022/01/01 04:27:55;;;;;;;14.10;7.55;;;14.30;86.90;;;;;;5062018;28;20025;-71
2022/01/01 04:30:21;;;;;;;12.73;8.60;;;14.30;86.90;;;;;;5070862;28;20032;-71
2022/01/01 04:32:48;;;;;;;11.13;7.43;;;14.20;86.70;;;;;;5070376;28;20063;-71
2022/01/01 04:35:15;;;;;;;10.15;7.50;;;14.30;86.90;;;;;;5069729;28;20036;-71
2022/01/01 04:37:41;;;;;;;13.70;8.05;;;14.30;86.90;;;;;;5070603;28;20380;-72
2022/01/01 04:40:08;;;;;;;17.52;8.40;;;14.30;86.90;;;;;;5070097;28;20073;-72
2022/01/01 04:42:35;;;;;;;15.45;8.23;;;14.30;86.90;;;;;;5070266;28;20035;-72
2022/01/01 04:45:01;;;;;;;12.07;7.75;;;14.30;86.90;;;;;;5070484;28;20122;-71
2022/01/01 04:47:27;;;;;;;14.38;8.10;;;14.30;86.90;;;;;;5070551;28;20101;-71
2022/01/01 04:49:53;;;;;;;12.43;7.55;;;14.30;86.90;;;;;;5070430;28;20032;-71
2022/01/01 04:52:19;;;;;;;11.13;7.45;;;14.30;86.90;;;;;;5052255;28;20025;-71
2022/01/01 04:54:45;;;;;;;13.15;7.03;;;14.20;86.70;;;;;;5070433;28;20040;-71
2022/01/01 04:57:12;;;;;;;11.25;6.93;;;14.20;86.70;;;;;;5070068;28;20033;-71
2022/01/01 04:59:40;;;;;;;16.45;10.15;;;14.20;86.70;;;;;;5062450;28;20132;-71
2022/01/01 05:02:07;;;;;;;9.80;6.28;;;14.20;86.70;;;;;;5070495;28;20024;-71
2022/01/01 05:04:34;;;;;;;11.07;7.60;;;14.20;86.70;;;;;;5052311;28;20028;-71
2022/01/01 05:07:00;;;;;;;15.65;7.45;;;14.20;86.80;;;;;;5052102;28;20039;-71
2022/01/01 05:09:28;;;;;;;15.77;7.95;;;14.20;86.80;;;;;;5069760;28;20036;-71
2022/01/01 05:11:54;;;;;;;12.60;7.18;;;14.20;86.80;;;;;;5070740;28;20032;-71
2022/01/01 05:14:20;;;;;;;12.48;6.88;;;14.20;86.80;;;;;;5065564;28;20055;-71
2022/01/01 05:16:46;;;;;;;10.75;7.97;;;14.20;86.80;;;;;;5070116;28;20072;-71
2022/01/01 05:19:12;;;;;;;11.98;6.88;;;14.20;86.80;;;;;;5052221;28;20024;-71
2022/01/01 05:21:38;;;;;;;13.52;6.72;;;14.10;86.60;;;;;;5073656;28;20036;-71
2022/01/01 05:24:06;;;;;;;11.93;6.93;;;14.20;86.80;;;;;;5073853;28;20249;-71
2022/01/01 05:26:32;;;;;;;9.98;6.55;;;14.10;86.60;;;;;;5055635;28;20028;-71
2022/01/01 05:28:59;;;;;;;10.20;6.93;;;14.20;86.80;;;;;;5065093;28;20107;-71
2022/01/01 05:31:25;;;;;;;16.80;7.80;;;14.20;86.70;;;;;;5073740;28;20029;-71
2022/01/01 05:33:52;;;;;;;12.20;6.38;;;14.20;86.70;;;;;;5073657;28;20442;-71
2022/01/01 05:36:19;;;;;;;13.10;7.07;;;14.20;86.70;;;;;;5072750;28;20028;-71
2022/01/01 05:38:46;;;;;;;14.32;7.00;;;14.20;86.70;;;;;;5078207;28;20056;-71
2022/01/01 05:41:12;;;;;;;12.90;7.00;;;14.20;86.70;;;;;;5072277;28;20051;-71
2022/01/01 05:43:39;;;;;;;12.77;6.72;;;14.20;86.70;;;;;;5090972;28;20052;-71
2022/01/01 05:46:05;;;;;;;11.32;7.30;;;14.20;86.60;;;;;;5075682;28;20054;-71
2022/01/01 05:48:32;;;;;;;14.35;7.72;;;14.20;86.60;;;;;;5053336;28;20139;-71
2022/01/01 05:50:59;;;;;;;11.60;7.13;;;14.20;86.60;;;;;;5070463;28;20074;-71
2022/01/01 05:53:25;;;;;;;12.13;6.72;;;14.20;86.60;;;;;;5070087;28;20150;-71
2022/01/01 05:55:51;;;;;;;22.88;8.77;;;14.20;87.10;;;;;;5068784;28;20036;-71
2022/01/01 05:58:18;;;;;;;13.40;6.85;;;14.20;86.60;;;;;;5061591;28;20093;-71
2022/01/01 06:00:44;;;;;;;14.40;8.40;;;14.10;86.40;;;;;;5040441;28;20059;-71
2022/01/01 06:03:10;;;;;;;12.25;6.65;;;14.20;86.50;;;;;;5058099;28;20072;-71
2022/01/01 06:05:37;;;;;;;11.07;6.57;;;14.10;86.30;;;;;;5067935;28;20587;-71
2022/01/01 06:08:03;;;;;;;11.55;7.18;;;14.20;86.50;;;;;;5049465;28;20070;-71
2022/01/01 06:10:29;;;;;;;11.40;6.93;;;14.20;86.40;;;;;;5068298;28;20063;-72
2022/01/01 06:12:56;;;;;;;11.63;5.70;;;14.20;86.40;;;;;;5068116;28;20507;-72
2022/01/01 06:15:22;;;;;;;11.55;6.85;;;14.20;86.40;;;;;;5067584;28;20073;-71
2022/01/01 06:17:48;;;;;;;12.98;6.53;;;14.20;86.40;;;;;;5067645;28;20033;-72
2022/01/01 06:20:15;;;;;;;11.07;6.95;;;14.20;86.40;;;;;;5068140;28;20028;-71
2022/01/01 06:22:42;;;;;;;13.35;6.25;;;14.20;86.30;;;;;;5067835;28;20480;-71
2022/01/01 06:25:09;;;;;;;13.88;7.00;;;14.20;86.30;;;;;;5066959;28;20495;-71
2022/01/01 06:27:35;;;;;;;9.82;6.05;;;14.20;86.30;;;;;;5067820;28;20024;-71
2022/01/01 06:30:01;;;;;;;10.70;6.60;;;14.20;86.20;;;;;;5068209;28;20675;-71
2022/01/01 06:32:31;;;;;;;13.13;6.40;;;14.20;86.20;;;;;;5055529;28;20024;-72
2022/01/01 06:34:58;;;;;;;14.02;7.40;;;14.20;86.20;;;;;;5067371;28;20029;-72
2022/01/01 06:37:24;;;;;;;11.57;6.40;;;14.20;86.10;;;;;;5049211;28;20025;-71
2022/01/01 06:39:50;;;;;;;8.98;6.70;;;14.20;86.10;;;;;;5067519;28;20021;-72
2022/01/01 06:42:16;;;;;;;12.60;5.97;;;14.30;86.20;;;;;;5067551;28;20048;-72
2022/01/01 06:44:42;;;;;;;10.85;6.43;;;14.20;86.00;;;;;;5049123;28;20036;-72
2022/01/01 06:47:11;;;;;;;13.45;7.47;;;14.20;85.90;;;;;;5066917;28;20041;-71
2022/01/01 06:49:37;;;;;;;9.98;6.07;;;14.30;86.10;;;;;;5067158;28;20042;-72
2022/01/01 06:52:04;;;;;;;16.17;5.97;;;14.20;85.90;;;;;;5076563;28;20024;-71
2022/01/01 06:54:31;;;;;;;9.18;5.93;;;14.20;85.90;;;;;;5052973;28;20029;-71
2022/01/01 06:56:56;;;;;;;15.93;6.60;;;14.20;85.90;;;;;;5047062;28;20194;-71
2022/01/01 06:59:22;;;;;;;8.48;5.68;;;14.20;85.80;;;;;;5063993;28;20116;-71
2022/01/01 07:01:49;;;;;;;10.43;6.20;;;14.20;85.80;;;;;;5066877;28;20032;-71
2022/01/01 07:04:15;;;;;;;9.95;6.00;;;14.20;85.80;;;;;;5067510;28;20405;-71
2022/01/01 07:06:41;;;;;;;10.80;6.40;;;14.20;85.80;;;;;;5066971;28;20380;-71
2022/01/01 07:09:07;;;;;;;12.00;6.25;;;14.20;85.70;;;;;;5048308;28;20062;-71
2022/01/01 07:11:33;;;;;;;10.52;5.63;;;14.20;85.70;;;;;;5066960;28;20449;-72
2022/01/01 07:13:59;;;;;;;12.63;6.07;;;14.20;85.70;;;;;;5048819;28;20036;-71
2022/01/01 07:16:26;;;;;;;11.20;6.25;;;14.20;85.70;;;;;;5066864;28;20038;-71
2022/01/01 07:18:52;;;;;;;9.13;6.07;;;14.20;85.70;;;;;;5066895;28;20037;-71
2022/01/01 07:21:18;;;;;;;17.23;6.30;;;14.20;85.70;;;;;;5063580;28;20522;-71
2022/01/01 07:23:44;;;;;;;13.98;5.72;;;14.20;85.60;;;;;;5055451;28;20044;-71
2022/01/01 07:26:10;;;;;;;10.45;5.05;;;14.20;85.60;;;;;;5069106;28;20447;-72
2022/01/01 07:28:37;;;;;;;14.18;6.35;;;14.20;85.60;;;;;;5045808;28;20047;-72
2022/01/01 07:31:03;;;;;;;14.55;6.43;;;14.20;85.60;;;;;;5084778;28;20032;-71
2022/01/01 07:33:29;;;;;;;12.32;5.78;;;14.30;85.90;;;;;;5054728;28;20609;-72
2022/01/01 07:35:55;;;;;;;9.73;5.20;;;14.30;85.90;;;;;;5037050;28;20059;-72
2022/01/01 07:38:22;;;;;;;11.70;5.85;;;14.30;85.80;;;;;;5045651;28;20029;-72
2022/01/01 07:40:49;;;;;;;12.00;7.15;;;14.30;85.80;;;;;;5045406;28;20603;-71
2022/01/01 07:43:17;;;;;;;13.20;5.05;;;14.30;85.70;;;;;;5060817;28;20041;-72
2022/01/01 07:45:44;;;;;;;12.52;6.18;;;14.40;85.80;;;;;;5038859;28;20020;-72
2022/01/01 07:48:10;;;;;;;11.00;5.13;;;14.30;85.60;;;;;;5073539;28;20083;-72
2022/01/01 07:50:36;;;;;;;12.20;6.38;;;14.40;85.80;;;;;;5046622;28;20037;-73
2022/01/01 07:53:03;;;;;;;8.60;5.25;;;14.40;85.80;;;;;;5046179;28;20484;-72
2022/01/01 07:55:29;;;;;;;13.15;4.95;;;14.40;85.80;;;;;;5046204;28;20124;-72
2022/01/01 07:57:55;;;;;;;10.40;4.32;;;14.40;85.80;;;;;;5045419;28;20158;-73
2022/01/01 08:00:21;;;;;;;11.82;4.95;;;14.40;85.80;;;;;;5044649;28;20036;-71
2022/01/01 08:02:47;;;;;;;14.02;4.97;;;14.40;85.80;;;;;;5045507;28;20033;-71
2022/01/01 08:05:17;;;;;;;10.40;5.75;;;14.40;85.80;;;;;;5046136;28;20574;-72
2022/01/01 08:07:44;;;;;;;15.05;5.40;;;14.50;85.90;;;;;;5045576;28;20029;-72
2022/01/01 08:10:11;;;;;;;12.18;4.75;;;14.50;85.90;;;;;;5046201;28;20179;-72
2022/01/01 08:12:38;;;;;;;11.02;4.90;;;14.50;85.90;;;;;;5045456;28;20036;-72
2022/01/01 08:15:05;;;;;;;12.73;5.05;;;14.50;85.90;;;;;;5045767;28;20040;-72
2022/01/01 08:17:31;;;;;;;13.48;5.57;;;14.60;86.10;;;;;;5045448;28;20029;-72
2022/01/01 08:19:57;;;;;;;10.35;4.40;;;14.60;86.10;;;;;;5045509;28;20178;-72
2022/01/01 08:22:24;;;;;;;12.82;4.63;;;14.60;86.10;;;;;;5028300;28;20033;-72
2022/01/01 08:24:50;;;;;;;15.50;6.60;;;14.60;86.10;;;;;;5058937;28;20033;-72
2022/01/01 08:27:17;;;;;;;11.70;5.35;;;14.60;86.10;;;;;;5045320;28;20059;-72
2022/01/01 08:29:43;;;;;;;12.40;5.03;;;14.70;86.30;;;;;;5055904;28;20037;-73
2022/01/01 08:32:09;;;;;;;10.07;4.38;;;14.70;86.30;;;;;;5064356;28;20029;-73
2022/01/01 08:34:35;;;;;;;14.70;5.50;;;14.70;86.30;;;;;;5071427;28;20078;-73
2022/01/01 08:37:01;;;;;;;16.80;5.88;;;14.80;86.50;;;;;;5077680;28;20121;-72
2022/01/01 08:39:27;;;;;;;17.58;6.18;;;14.80;86.50;;;;;;5056033;28;20036;-72
2022/01/01 08:41:53;;;;;;;16.10;5.53;;;14.80;87.00;;;;;;5064008;28;20375;-73
2022/01/01 08:44:19;;;;;;;12.15;4.70;;;14.80;86.50;;;;;;5065653;28;20037;-73
2022/01/01 08:46:45;;;;;;;14.02;5.18;;;14.80;86.50;;;;;;5065454;28;20047;-72
2022/01/01 08:49:12;;;;;;;10.07;4.00;;;14.90;86.70;;;;;;5065538;28;20490;-73
2022/01/01 08:51:42;;;;;;;16.25;4.90;;;14.80;86.40;;;;;;5065546;28;20039;-72
2022/01/01 08:54:08;;;;;;;9.63;4.57;;;14.90;86.60;;;;;;5065296;28;20036;-74
2022/01/01 08:56:34;;;;;;;14.32;4.10;;;14.90;86.60;;;;;;5083997;28;20032;-73
2022/01/01 08:59:00;;;;;;;20.05;4.93;;;14.90;86.50;;;;;;5045174;28;20037;-73
2022/01/01 09:01:27;;;;;;;15.43;5.93;;;14.90;86.40;;;;;;5059916;28;20051;-73
2022/01/01 09:03:53;;;;;;;15.75;6.10;;;15.00;86.60;;;;;;5071870;28;20051;-74
2022/01/01 09:06:19;;;;;;;15.18;5.05;;;15.00;86.60;;;;;;5089627;28;20024;-73
2022/01/01 09:08:45;;;;;;;14.57;5.20;;;15.00;86.50;;;;;;5073613;28;20218;-73
2022/01/01 09:11:13;;;;;;;15.80;5.28;;;15.00;86.50;;;;;;5080574;28;20027;-72
2022/01/01 09:13:43;;;;;;;13.15;4.60;;;15.00;86.50;;;;;;5061158;28;20119;-73
2022/01/01 09:16:15;;;;;;;14.52;4.30;;;15.10;86.60;;;;;;5049378;28;20032;-73
2022/01/01 09:18:43;;;;;;;12.30;4.72;;;15.00;86.50;;;;;;5041369;28;20115;-72
2022/01/01 09:21:09;;;;;;;15.82;4.75;;;15.10;86.60;;;;;;5068220;28;20085;-74
2022/01/01 09:23:36;;;;;;;15.68;4.80;;;15.10;86.70;;;;;;5060910;28;20331;-73
2022/01/01 09:26:03;;;;;;;13.32;5.45;;;15.10;87.00;;;;;;5039797;28;20021;-72
2022/01/01 09:28:30;;;;;;;14.50;4.32;;;15.20;87.30;;;;;;5065024;28;20055;-73
2022/01/01 09:30:57;;;;;;;10.52;4.35;;;15.40;87.50;;;;;;5081844;28;20073;-73
2022/01/01 09:33:27;;;;;;;11.90;5.03;;;15.40;87.40;;;;;;5063265;28;20033;-72
2022/01/01 09:35:53;;;;;;;10.25;3.17;;;15.40;87.30;;;;;;5038695;28;20039;-73
2022/01/01 09:38:19;;;;;;;14.27;4.30;;;15.40;87.20;;;;;;5048704;28;20428;-73
2022/01/01 09:40:45;;;;;;;13.38;5.15;;;15.40;87.20;;;;;;5048438;28;20083;-72
2022/01/01 09:43:12;;;;;;;17.05;5.65;;;15.40;87.20;;;;;;5053388;28;20049;-73
2022/01/01 09:45:40;;;;;;;14.88;5.10;;;15.30;87.10;;;;;;5061388;28;20029;-73
2022/01/01 09:48:07;;;;;;;12.73;4.82;;;15.30;87.10;;;;;;5077589;28;20064;-73
2022/01/01 09:50:34;;;;;;;10.73;5.20;;;15.30;87.10;;;;;;5088846;28;20028;-72
2022/01/01 09:53:00;;;;;;;12.27;4.60;;;15.20;86.90;;;;;;5084339;28;20384;-73
2022/01/01 09:55:26;;;;;;;11.40;5.00;;;15.30;87.10;;;;;;5048312;28;20032;-73
2022/01/01 09:57:52;;;;;;;14.00;4.95;;;15.20;86.90;;;;;;5050997;28;20120;-73
2022/01/01 10:00:18;;;;;;;11.63;4.22;;;15.20;86.90;;;;;;5067085;28;20031;-72
2022/01/01 10:02:44;;;;;;;12.73;4.13;;;15.20;86.90;;;;;;5061432;28;20100;-73
2022/01/01 10:05:10;;;;;;;18.02;6.53;;;15.20;86.90;;;;;;5060284;28;20033;-72
2022/01/01 10:07:36;;;;;;;12.02;4.50;;;15.20;87.00;;;;;;5036823;28;20029;-73
2022/01/01 10:10:25;;;;;;;11.82;4.05;;;15.20;86.90;;;;;;5047949;28;20039;-73
2022/01/01 10:12:51;;;;;;;18.52;5.25;;;15.30;87.10;;;;;;5052742;28;20372;-72
2022/01/01 10:15:19;;;;;;;10.48;4.35;;;15.30;87.00;;;;;;5068161;28;20047;-73
2022/01/01 10:17:46;;;;;;;9.75;4.13;;;15.20;86.80;;;;;;5075331;28;20126;-73
2022/01/01 10:20:13;;;;;;;11.63;4.60;;;15.20;86.70;;;;;;5053003;28;20033;-72
2022/01/01 10:22:39;;;;;;;16.75;5.22;;;15.30;86.90;;;;;;5067641;28;20059;-73
2022/01/01 10:28:00;;;;;;;9.95;3.80;;;15.30;86.80;;;;;;5067371;28;20025;-74
2022/01/01 10:30:28;;;;;;;12.40;5.00;;;15.30;86.80;;;;;;5080312;28;20107;-72
2022/01/01 10:33:06;;;;;;;11.13;4.85;;;15.30;86.70;;;;;;5065657;28;20021;-72
2022/01/01 10:35:39;;;;;;;13.65;4.93;;;15.30;86.60;;;;;;5067746;28;20444;-73
2022/01/01 10:38:11;;;;;;;12.65;4.05;;;15.40;86.80;;;;;;5068093;28;20849;-72
2022/01/01 10:40:43;;;;;;;10.03;4.60;;;15.40;86.70;;;;;;5074375;28;20047;-73
2022/01/01 10:43:10;;;;;;;15.97;5.83;;;15.40;86.60;;;;;;5081052;28;20033;-73
2022/01/01 10:45:48;;;;;;;14.00;4.75;;;15.40;86.50;;;;;;5047185;28;20273;-73
2022/01/01 10:48:18;;;;;;;11.77;4.60;;;15.40;86.40;;;;;;5047258;28;20073;-72
2022/01/01 10:50:46;;;;;;;13.85;4.85;;;15.50;86.60;;;;;;5047561;28;20487;-73
2022/01/01 10:53:19;;;;;;;14.30;5.47;;;15.50;86.50;;;;;;5047425;28;20314;-73
2022/01/01 10:55:51;;;;;;;15.52;5.38;;;15.60;86.50;;;;;;5047792;28;20040;-72
2022/01/01 10:58:28;;;;;;;18.25;5.75;;;15.60;86.40;;;;;;5047109;28;20312;-73
2022/01/01 11:01:08;;;;;;;18.60;7.00;;;15.60;86.20;;;;;;5046478;28;20021;-73
2022/01/01 11:03:42;;;;;;;17.98;5.32;;;15.60;86.00;;;;;;5046554;28;20302;-73
2022/01/01 11:06:10;;;;;;;17.58;6.65;;;15.70;86.20;;;;;;5047121;28;20059;-72
2022/01/01 11:08:38;;;;;;;21.15;6.07;;;15.70;86.10;;;;;;5046946;28;20442;-72
2022/01/01 11:11:04;;;;;;;16.50;6.50;;;15.80;86.10;;;;;;5046778;28;20053;-73
2022/01/01 11:13:34;;;;;;;19.67;6.47;;;15.80;86.00;;;;;;5034750;28;20024;-74
2022/01/01 11:16:03;;;;;;;19.98;6.00;;;15.80;85.80;;;;;;5065247;28;20496;-74
2022/01/01 11:18:29;;;;;;;15.63;5.28;;;15.90;85.90;;;;;;5066516;28;20043;-73
2022/01/01 11:20:56;;;;;;;17.92;6.32;;;15.90;85.80;;;;;;5066919;28;20086;-73
2022/01/01 11:23:22;;;;;;;13.73;4.75;;;15.90;85.70;;;;;;5066459;28;20051;-73
2022/01/01 11:25:48;;;;;;;17.33;6.00;;;16.00;85.80;;;;;;5067021;28;20040;-73
2022/01/01 11:28:17;;;;;;;15.32;5.43;;;16.00;85.70;;;;;;5048432;28;20396;-73
2022/01/01 11:30:49;;;;;;;21.02;6.30;;;16.00;85.60;;;;;;5067821;28;20027;-73
2022/01/01 11:33:26;;;;;;;20.05;7.47;;;16.00;85.60;;;;;;5072009;28;20037;-74
2022/01/01 11:35:57;;;;;;;20.15;6.18;;;16.00;85.50;;;;;;5044775;28;20047;-73
2022/01/01 11:38:25;;;;;;;19.52;6.30;;;16.00;85.40;;;;;;5067182;28;20460;-74
2022/01/01 11:41:18;;;;;;;16.67;6.15;;;16.10;85.50;;;;;;5065992;28;20051;-72
2022/01/01 11:43:54;;;;;;;15.65;6.82;;;16.20;85.50;;;;;;5044677;28;20044;-73
2022/01/01 11:46:29;;;;;;;33.45;8.25;;;16.20;85.50;;;;;;5066344;28;20213;-72
2022/01/01 11:49:03;;;;;;;21.13;8.38;;;16.20;85.30;;;;;;5056867;28;20044;-73
2022/01/01 11:51:31;;;;;;;17.15;5.43;;;16.30;85.40;;;;;;5065794;28;20112;-73
2022/01/01 11:54:15;;;;;;;14.18;5.03;;;16.40;85.40;;;;;;5056348;28;20060;-73
2022/01/01 11:56:50;;;;;;;31.40;7.60;;;16.40;85.30;;;;;;5046036;28;20032;-72
2022/01/01 11:59:38;;;;;;;18.52;6.15;;;16.50;85.30;;;;;;5045910;28;20055;-72
2022/01/01 12:02:19;;;;;;;17.15;5.45;;;16.50;85.20;;;;;;5034690;28;20056;-71
2022/01/01 12:04:50;;;;;;;13.35;4.25;;;16.50;85.10;;;;;;5076702;28;20041;-74
2022/01/01 12:07:16;;;;;;;12.98;4.53;;;16.60;85.40;;;;;;5051517;28;20081;-75
2022/01/01 12:10:04;;;;;;;16.73;4.55;;;16.70;85.60;;;;;;5048937;28;20514;-74
2022/01/01 12:12:45;;;;;;;13.80;4.75;;;16.90;85.90;;;;;;5045463;28;20412;-75
2022/01/01 12:15:20;;;;;;;17.10;5.65;;;17.00;85.80;;;;;;5059928;28;20029;-75
2022/01/01 12:18:01;;;;;;;17.23;4.07;;;17.20;85.80;;;;;;5047789;28;20116;-73
2022/01/01 12:20:34;;;;;;;15.68;5.10;;;17.30;85.60;;;;;;5065906;28;20035;-74
2022/01/01 12:23:06;;;;;;;24.83;6.82;;;17.30;85.30;;;;;;5071244;28;20029;-74
2022/01/01 12:25:34;;;;;;;20.92;6.15;;;17.40;85.30;;;;;;5046688;28;20049;-74
2022/01/01 12:28:06;;;;;;;16.55;4.97;;;17.40;85.20;;;;;;5045413;28;20396;-74
2022/01/01 12:30:48;;;;;;;14.85;4.32;;;17.50;85.30;;;;;;5032162;28;20029;-74
2022/01/01 12:33:39;;;;;;;26.45;6.95;;;17.50;85.10;;;;;;5060171;28;20025;-74
2022/01/01 12:36:11;;;;;;;27.50;8.60;;;17.50;85.00;;;;;;5084496;28;20028;-74
2022/01/01 12:38:40;;;;;;;23.37;6.53;;;17.60;85.10;;;;;;5044308;28;20082;-73
2022/01/01 12:41:07;;;;;;;27.90;7.80;;;17.60;85.10;;;;;;5068765;28;20029;-74
2022/01/01 12:43:48;;;;;;;14.75;6.10;;;17.70;85.20;;;;;;5060296;28;20037;-74
2022/01/01 12:46:16;;;;;;;23.35;6.22;;;17.70;85.00;;;;;;5044721;28;20033;-73
2022/01/01 12:48:42;;;;;;;25.63;6.20;;;17.80;85.10;;;;;;5036952;28;20048;-74